This is the latest recevied weather packets stored in our database for station/object KY4LEX. If no packets are shown the sender has not sent any weather packets the latest 10 day(s).
| Time | Temp. | Humidity | Pressure | Rain* | Wind** | Luminosity | Snow |
|---|---|---|---|---|---|---|---|
| 1778033653 | 15.56° C | 96% | 1013.3 hPa | 0 mm | - | 0 W/m² | - |
| 1778033350 | 15.56° C | 96% | 1013.3 hPa | 0 mm | - | 0 W/m² | - |
| 1778033048 | 16.11° C | 96% | 1012.9 hPa | 0 mm | - | 0 W/m² | - |
| 1778032139 | 16.11° C | 96% | 1012.8 hPa | 0 mm | - | 0 W/m² | - |
| 1778031532 | 16.11° C | 96% | 1012.6 hPa | 0 mm | - | 0 W/m² | - |
| 1778030926 | 16.11° C | 95% | 1012.9 hPa | 0 mm | - | 0 W/m² | - |
| 1778030623 | 16.11° C | 95% | 1012.4 hPa | 0 mm | - | 0 W/m² | - |
| 1778028806 | 16.11° C | 93% | 1013 hPa | 0 mm | - | 0 W/m² | - |
| 1778028502 | 16.11° C | 92% | 1013.6 hPa | 0 mm | - | 0 W/m² | - |
| 1778027592 | 16.67° C | 88% | 1013.1 hPa | 0 mm | - | 0 W/m² | - |
| 1778027288 | 16.67° C | 87% | 1013.1 hPa | 0 mm | - | 1 W/m² | - |
| 1778026985 | 16.67° C | 86% | 1013.1 hPa | 0 mm | - | 2 W/m² | - |
| 1778025167 | 17.78° C | 80% | 1012.9 hPa | 0 mm | - | 21 W/m² | - |
| 1778020016 | 19.44° C | 73% | 1013.8 hPa | 0 mm | - | 57 W/m² | - |
| 1778019106 | 19.44° C | 69% | 1013.9 hPa | 0 mm | - | 46 W/m² | - |
| 1778018803 | 18.89° C | 69% | 1014 hPa | 0 mm | - | 61 W/m² | - |
| 1778016685 | 18.89° C | 75% | 1014.5 hPa | 0 mm | - | 28 W/m² | - |
| 1778016079 | 18.89° C | 73% | 1014.5 hPa | 0 mm | - | 29 W/m² | - |
| 1778015472 | 18.89° C | 74% | 1014.3 hPa | 0 mm | - | 39 W/m² | - |
| 1778015169 | 18.89° C | 72% | 1014.3 hPa | 0 mm | - | 42 W/m² | - |
| 1778014866 | 18.89° C | 71% | 1014.6 hPa | 0 mm | - | 50 W/m² | - |
| 1778013352 | 18.89° C | 72% | 1015 hPa | 0 mm | - | 55 W/m² | - |
| 1778010926 | 21.67° C | 53% | 1015.1 hPa | 0 mm | - | 191 W/m² | - |
| 1778009714 | 21.67° C | 53% | 1015.1 hPa | 0 mm | - | 153 W/m² | - |
| 1778009411 | 21.67° C | 52% | 1015.3 hPa | 0 mm | - | 121 W/m² | - |
* Rain latest hour (hover to see other rain measurements)
** Current wind speed in m/s (hover to see current wind gust speed)